Time;durP1;ratioP1;P1;durP2;ratioP2;P2;SDS_P1;SDS_P2;PMS_P1;PMS_P2;Temp;Humidity;BMP_temperature;BMP_pressure;BME280_temperature;BME280_humidity;BME280_pressure;Samples;Min_cycle;Max_cycle;Signal;HPM_P1;HPM_P2
2021/09/12 00:04:51;;;;;;;3.35;1.23;;;17.90;99.90;;;;;;20975242;28;20492;-45
2021/09/12 00:14:52;;;;;;;2.92;1.05;;;17.80;99.90;;;;;;20978227;28;20036;-45
2021/09/12 00:24:53;;;;;;;2.40;0.70;;;17.80;99.90;;;;;;20975438;28;20403;-45
2021/09/12 00:34:54;;;;;;;3.55;1.83;;;17.70;99.90;;;;;;20987331;28;20053;-45
2021/09/12 00:44:55;;;;;;;3.85;1.48;;;17.50;99.90;;;;;;20982281;28;20049;-45
2021/09/12 00:54:59;;;;;;;4.82;1.10;;;17.30;99.90;;;;;;20981532;28;20048;-45
2021/09/12 01:05:00;;;;;;;4.95;1.10;;;17.20;99.90;;;;;;20973002;28;20098;-45
2021/09/12 01:15:02;;;;;;;4.90;1.73;;;17.10;99.90;;;;;;20984327;28;20036;-45
2021/09/12 01:25:04;;;;;;;4.28;1.98;;;17.00;99.90;;;;;;20984014;28;20048;-45
2021/09/12 01:35:06;;;;;;;4.10;1.48;;;16.90;99.90;;;;;;20987276;28;20043;-45
2021/09/12 01:45:07;;;;;;;4.20;1.55;;;16.70;99.90;;;;;;20967023;28;20061;-45
2021/09/12 01:55:09;;;;;;;8.90;1.55;;;16.60;99.90;;;;;;20992523;28;20028;-45
2021/09/12 02:05:11;;;;;;;4.20;1.40;;;16.50;99.90;;;;;;20984386;28;20639;-45
2021/09/12 02:15:12;;;;;;;5.05;1.50;;;16.40;99.90;;;;;;20983097;28;20036;-45
2021/09/12 02:25:13;;;;;;;4.53;1.60;;;16.20;99.90;;;;;;20975672;28;20079;-45
2021/09/12 02:35:14;;;;;;;3.88;1.55;;;16.10;99.90;;;;;;21684065;22;20260;-82
2021/09/12 02:45:15;;;;;;;7.07;1.80;;;15.90;99.90;;;;;;20577672;28;20054;-82
2021/09/12 02:55:17;;;;;;;7.38;1.80;;;15.70;99.90;;;;;;20573204;28;20494;-80
2021/09/12 03:05:18;;;;;;;7.55;1.98;;;15.70;99.90;;;;;;20556362;28;20067;-80
2021/09/12 03:15:20;;;;;;;4.30;2.08;;;15.60;99.90;;;;;;20510948;28;20043;-80
2021/09/12 03:25:21;;;;;;;4.05;1.55;;;15.60;99.90;;;;;;20607295;28;20073;-80
2021/09/12 03:35:22;;;;;;;6.05;2.33;;;15.40;99.90;;;;;;20566824;28;20050;-79
2021/09/12 03:45:24;;;;;;;5.45;1.83;;;15.30;99.90;;;;;;20552271;28;20050;-80
2021/09/12 03:55:29;;;;;;;10.55;3.35;;;15.30;99.90;;;;;;20522554;28;20478;-80
2021/09/12 04:05:30;;;;;;;11.98;2.47;;;15.10;99.90;;;;;;20530029;28;20070;-82
2021/09/12 04:15:31;;;;;;;7.75;2.45;;;14.90;99.90;;;;;;20485586;28;20517;-82
2021/09/12 04:25:32;;;;;;;8.38;3.33;;;14.90;99.90;;;;;;20528786;28;20050;-82
2021/09/12 04:35:33;;;;;;;8.05;2.65;;;15.00;99.90;;;;;;20456302;28;20046;-82
2021/09/12 04:45:34;;;;;;;11.07;3.00;;;15.10;99.90;;;;;;20510005;28;20059;-82
2021/09/12 04:55:35;;;;;;;12.00;2.90;;;15.20;99.90;;;;;;20480486;28;20056;-82
2021/09/12 05:05:37;;;;;;;7.60;3.03;;;15.20;99.90;;;;;;20465635;28;20051;-82
2021/09/12 05:15:38;;;;;;;7.15;2.10;;;15.30;99.90;;;;;;20488786;28;20050;-82
2021/09/12 05:25:42;;;;;;;10.23;3.35;;;15.30;99.90;;;;;;20518468;28;20630;-81
2021/09/12 05:35:43;;;;;;;7.93;3.90;;;15.30;99.90;;;;;;20556053;28;20038;-82
2021/09/12 05:45:46;;;;;;;8.68;3.28;;;15.30;99.90;;;;;;20534956;28;20089;-82
2021/09/12 05:55:47;;;;;;;10.55;3.88;;;15.40;99.90;;;;;;20504997;28;20052;-82
2021/09/12 06:05:48;;;;;;;16.67;3.75;;;15.40;99.90;;;;;;20534637;28;20728;-82
2021/09/12 06:15:49;;;;;;;8.38;3.00;;;15.50;99.90;;;;;;20515973;28;20053;-82
2021/09/12 06:25:50;;;;;;;13.20;3.70;;;15.40;99.90;;;;;;20513180;28;20409;-82
2021/09/12 06:35:51;;;;;;;13.68;3.83;;;15.40;99.90;;;;;;20502988;28;20058;-80
2021/09/12 06:45:52;;;;;;;8.80;3.85;;;15.60;99.90;;;;;;20521939;28;20050;-80
2021/09/12 06:55:55;;;;;;;7.43;3.55;;;15.60;99.90;;;;;;20526082;28;20066;-82
2021/09/12 07:05:56;;;;;;;11.20;4.38;;;15.90;99.90;;;;;;20505302;28;20053;-82
2021/09/12 07:15:57;;;;;;;9.30;3.92;;;15.90;99.90;;;;;;20490350;28;20051;-80
2021/09/12 07:25:59;;;;;;;7.82;4.13;;;16.00;99.90;;;;;;20514243;28;20048;-80
2021/09/12 07:36:00;;;;;;;13.30;4.15;;;16.00;99.90;;;;;;20466576;28;20042;-80
2021/09/12 07:46:01;;;;;;;11.63;4.50;;;16.10;99.90;;;;;;20569473;28;20066;-79
2021/09/12 07:56:02;;;;;;;11.35;4.38;;;16.20;99.90;;;;;;20523307;28;20143;-80
2021/09/12 08:06:03;;;;;;;14.60;6.53;;;16.40;99.90;;;;;;20539303;28;20074;-80
2021/09/12 08:16:05;;;;;;;10.52;4.45;;;16.50;99.90;;;;;;20514959;28;20081;-81
2021/09/12 08:26:07;;;;;;;11.93;4.57;;;16.60;99.90;;;;;;20528792;28;20141;-81
2021/09/12 08:36:08;;;;;;;15.35;4.82;;;16.70;99.90;;;;;;20494005;28;20072;-81
2021/09/12 08:46:09;;;;;;;17.98;5.95;;;16.90;99.90;;;;;;20554738;28;20597;-82
2021/09/12 08:56:11;;;;;;;12.43;5.55;;;17.20;99.90;;;;;;20526723;28;20400;-82
2021/09/12 09:06:14;;;;;;;12.88;4.65;;;17.20;99.90;;;;;;20550997;28;20054;-81
2021/09/12 09:16:28;;;;;;;18.00;5.68;;;17.40;99.90;;;;;;20535599;28;20038;-82
2021/09/12 09:26:29;;;;;;;18.52;6.55;;;17.50;99.90;;;;;;20469611;28;20046;-81
2021/09/12 09:36:30;;;;;;;21.73;6.20;;;17.60;99.90;;;;;;20543449;28;20053;-81
2021/09/12 09:46:37;;;;;;;20.48;6.13;;;17.90;99.90;;;;;;20519547;28;20058;-82
2021/09/12 09:56:40;;;;;;;21.57;6.57;;;18.30;99.90;;;;;;20570981;28;20034;-82
2021/09/12 10:06:42;;;;;;;15.40;6.10;;;18.30;99.90;;;;;;20635635;28;20112;-82
2021/09/12 10:16:47;;;;;;;20.92;7.70;;;18.70;99.90;;;;;;20517871;28;20054;-82
2021/09/12 10:26:48;;;;;;;18.23;6.30;;;19.40;99.90;;;;;;20498105;28;20031;-82
2021/09/12 10:36:49;;;;;;;14.63;5.47;;;19.70;99.90;;;;;;20492197;28;20580;-82
2021/09/12 10:47:08;;;;;;;19.15;6.47;;;20.10;99.90;;;;;;20511120;28;20061;-82
2021/09/12 10:57:09;;;;;;;12.05;5.55;;;20.20;99.90;;;;;;20501311;28;20043;-81
2021/09/12 11:07:10;;;;;;;11.30;5.20;;;19.80;99.90;;;;;;20487178;28;20137;-82
2021/09/12 11:17:12;;;;;;;7.63;3.17;;;19.80;99.90;;;;;;20475147;28;20055;-80
2021/09/12 11:27:13;;;;;;;5.10;2.05;;;20.10;99.90;;;;;;20526351;28;20074;-82
2021/09/12 11:37:18;;;;;;;4.32;1.98;;;20.20;99.90;;;;;;20517159;28;20564;-80
2021/09/12 11:47:22;;;;;;;2.83;1.52;;;20.30;99.90;;;;;;20538269;28;20043;-81
2021/09/12 11:57:24;;;;;;;2.83;1.27;;;20.20;99.90;;;;;;20528876;28;20776;-81
2021/09/12 12:07:36;;;;;;;1.63;0.63;;;20.10;99.90;;;;;;20551798;28;20065;-81
2021/09/12 12:17:37;;;;;;;3.33;1.08;;;20.00;99.90;;;;;;20505740;28;20067;-81
2021/09/12 12:27:39;;;;;;;0.75;0.38;;;20.20;99.90;;;;;;20505590;28;20066;-81
2021/09/12 12:37:45;;;;;;;1.25;0.63;;;20.30;99.90;;;;;;20539564;28;20050;-80
2021/09/12 12:47:48;;;;;;;1.45;0.60;;;20.40;99.90;;;;;;20544547;28;20064;-80
2021/09/12 12:57:49;;;;;;;1.73;0.85;;;21.30;99.90;;;;;;20536695;28;20050;-80
2021/09/12 13:07:50;;;;;;;1.73;0.77;;;22.40;99.90;;;;;;20540523;28;20067;-79
2021/09/12 13:17:51;;;;;;;0.85;0.35;;;22.30;99.90;;;;;;20546886;28;20044;-80
2021/09/12 13:27:53;;;;;;;17.90;0.50;;;22.40;99.90;;;;;;20557173;28;20057;-80
2021/09/12 13:37:54;;;;;;;0.77;0.32;;;22.10;99.90;;;;;;20492735;28;20164;-80
2021/09/12 13:47:55;;;;;;;0.80;0.25;;;23.00;99.90;;;;;;20498604;28;20072;-80
2021/09/12 13:57:56;;;;;;;4.95;0.45;;;23.90;99.90;;;;;;20548428;28;20411;-80
2021/09/12 14:07:57;;;;;;;0.70;0.30;;;24.40;99.90;;;;;;20507127;28;20063;-80
2021/09/12 14:17:59;;;;;;;1.00;0.30;;;24.30;99.90;;;;;;20527315;28;20039;-80
2021/09/12 14:28:00;;;;;;;0.70;0.25;;;23.70;99.90;;;;;;20533234;28;20419;-80
2021/09/12 14:38:01;;;;;;;0.60;0.40;;;23.20;99.90;;;;;;20554261;28;20074;-80
2021/09/12 14:48:03;;;;;;;1.58;0.40;;;22.90;99.90;;;;;;20559508;28;20055;-81
2021/09/12 14:58:04;;;;;;;0.98;0.40;;;22.40;99.90;;;;;;20469773;28;20059;-81
2021/09/12 15:08:05;;;;;;;0.75;0.38;;;21.90;99.90;;;;;;20527148;28;20048;-81
2021/09/12 15:18:07;;;;;;;1.58;0.20;;;21.60;99.90;;;;;;20484420;28;20045;-80
2021/09/12 15:28:09;;;;;;;1.05;0.40;;;21.30;99.90;;;;;;20453878;28;20070;-81
2021/09/12 15:38:10;;;;;;;1.40;0.30;;;21.10;99.90;;;;;;20484876;28;20056;-81
2021/09/12 15:48:11;;;;;;;1.17;0.30;;;20.70;99.90;;;;;;20484695;28;20062;-81
2021/09/12 15:58:12;;;;;;;0.88;0.30;;;20.60;99.90;;;;;;20484963;28;20055;-81
2021/09/12 16:08:13;;;;;;;1.55;0.47;;;20.40;99.90;;;;;;20528976;28;20040;-81
2021/09/12 16:18:14;;;;;;;0.98;0.40;;;20.10;99.90;;;;;;20528809;28;20048;-81
2021/09/12 16:28:15;;;;;;;0.73;0.20;;;19.80;99.90;;;;;;20495347;28;20047;-81
2021/09/12 16:38:16;;;;;;;2.03;0.73;;;19.40;99.90;;;;;;20484680;28;20503;-81
2021/09/12 16:48:17;;;;;;;1.13;0.40;;;19.20;99.90;;;;;;20478602;28;20068;-81
2021/09/12 16:58:21;;;;;;;1.05;0.50;;;19.00;99.90;;;;;;20535100;28;20492;-81
2021/09/12 17:08:24;;;;;;;1.50;0.50;;;18.70;99.90;;;;;;20540378;28;20196;-81
2021/09/12 17:18:25;;;;;;;3.00;0.43;;;18.60;99.90;;;;;;20485418;28;20062;-81
2021/09/12 17:28:27;;;;;;;1.83;0.95;;;18.40;99.90;;;;;;20500429;28;20043;-79
2021/09/12 17:38:28;;;;;;;0.70;0.30;;;18.10;99.90;;;;;;20505073;28;20061;-79
2021/09/12 17:48:29;;;;;;;1.80;0.40;;;17.90;99.90;;;;;;20538354;28;20501;-79
2021/09/12 17:58:30;;;;;;;1.05;0.50;;;17.60;99.90;;;;;;20564365;28;20059;-80
2021/09/12 18:08:31;;;;;;;1.30;0.52;;;17.50;99.90;;;;;;20506277;28;20052;-80
2021/09/12 18:18:32;;;;;;;1.23;0.57;;;17.20;99.90;;;;;;20534645;28;20746;-80
2021/09/12 18:28:33;;;;;;;2.08;0.95;;;17.10;99.90;;;;;;20540529;28;20058;-80
2021/09/12 18:38:35;;;;;;;2.25;0.50;;;17.00;99.90;;;;;;20471380;28;20048;-80
2021/09/12 18:48:36;;;;;;;4.38;2.03;;;16.90;99.90;;;;;;20496581;28;20059;-80
2021/09/12 18:58:38;;;;;;;3.90;2.03;;;16.80;99.90;;;;;;20484134;28;20038;-81
2021/09/12 19:08:39;;;;;;;5.78;1.80;;;16.60;99.90;;;;;;20518523;28;20059;-80
2021/09/12 19:18:40;;;;;;;2.35;1.10;;;16.50;99.90;;;;;;20530052;28;20073;-80
2021/09/12 19:28:42;;;;;;;1.67;0.82;;;16.40;99.90;;;;;;20497640;28;20063;-80
2021/09/12 19:38:43;;;;;;;3.95;2.42;;;16.30;99.90;;;;;;20491434;28;20522;-81
2021/09/12 19:48:45;;;;;;;3.13;1.15;;;16.10;99.90;;;;;;20517235;28;20528;-81
2021/09/12 19:58:47;;;;;;;4.20;1.88;;;16.00;99.90;;;;;;20521192;28;20384;-80
2021/09/12 20:08:48;;;;;;;2.92;1.30;;;15.90;99.90;;;;;;20551340;28;20059;-83
2021/09/12 20:18:49;;;;;;;3.60;1.55;;;15.70;99.90;;;;;;20518696;28;20070;-83
2021/09/12 20:28:50;;;;;;;3.17;1.10;;;15.60;99.90;;;;;;20485083;28;20146;-83
2021/09/12 20:38:51;;;;;;;2.95;1.17;;;15.60;99.90;;;;;;20524928;28;20049;-83
2021/09/12 20:48:53;;;;;;;4.95;1.50;;;15.50;99.90;;;;;;20530742;28;20059;-82
2021/09/12 20:58:54;;;;;;;3.22;1.10;;;15.30;99.90;;;;;;20521658;28;20047;-83
2021/09/12 21:08:55;;;;;;;4.53;1.42;;;15.30;99.90;;;;;;20501855;28;20069;-82
2021/09/12 21:18:56;;;;;;;3.25;0.90;;;15.10;99.90;;;;;;20526110;28;20750;-83
2021/09/12 21:28:57;;;;;;;2.17;0.90;;;15.20;99.90;;;;;;20519464;28;20073;-83
2021/09/12 21:38:58;;;;;;;2.35;0.98;;;15.00;99.90;;;;;;20515605;28;20058;-83
2021/09/12 21:48:59;;;;;;;3.30;0.85;;;15.00;99.90;;;;;;20478830;28;20433;-83
2021/09/12 21:59:00;;;;;;;3.75;1.55;;;15.00;99.90;;;;;;20523206;28;20054;-83
2021/09/12 22:09:01;;;;;;;2.88;1.05;;;14.90;99.90;;;;;;20507674;28;20512;-83
2021/09/12 22:19:03;;;;;;;4.85;1.52;;;14.80;99.90;;;;;;20523020;28;20057;-83
2021/09/12 22:29:04;;;;;;;2.17;1.08;;;14.80;99.90;;;;;;20553635;28;20066;-83
2021/09/12 22:39:05;;;;;;;2.00;1.05;;;14.60;99.90;;;;;;20541315;28;20047;-83
2021/09/12 22:49:06;;;;;;;1.90;1.05;;;14.70;99.90;;;;;;20509159;28;20054;-83
2021/09/12 22:59:07;;;;;;;2.65;1.00;;;14.50;99.90;;;;;;20534101;28;20058;-83
2021/09/12 23:09:08;;;;;;;2.72;1.10;;;14.30;99.90;;;;;;20559479;28;20047;-83
2021/09/12 23:19:10;;;;;;;2.75;1.85;;;14.20;99.90;;;;;;20547161;28;20066;-83
2021/09/12 23:29:11;;;;;;;4.55;1.00;;;14.30;99.90;;;;;;20589845;28;20051;-82
2021/09/12 23:39:12;;;;;;;5.43;1.55;;;14.30;99.90;;;;;;20479258;28;20089;-83
2021/09/12 23:49:13;;;;;;;4.13;1.27;;;14.10;99.90;;;;;;20493609;28;20503;-83
2021/09/12 23:59:14;;;;;;;6.93;1.88;;;14.20;99.90;;;;;;20544617;28;20066;-82
